USTRANSCOM 7560


ETAR
Ramstein Air Force Base
Ramstein, DE
BIKF
Keflavík International Airport
Reykjavík, IS

Activity Log

Date Flight Route Aircraft Duration
06/11/2020 CMB7560 RUDOT LNO UN852 SPY L602 BERGI UM90 LONAM N610 RATSU ALDAN ASRUN ASRUN1H B752 3h 06m

Route Details

Aircraft Information
Primary: Boeing 757-200SF
Backup: Not Available
Route Data
Distance: 1305nm
Sched. Duration: 3h 45m
Avg. Duration: 3h 06m (-38m)
Times Flown: 1
Recm'd Route: RUDOT LNO UN852 SPY L602 BERGI UM90 LONAM N610 RATSU ALDAN ASRUN ASRUN1H
Planned Altitude: 34,000ft
Origin Wx: ETAR 271756Z AUTO 19006KT 9999 CLR 09/06 A2980 RMK AO2 SLP098 T00940061 10122 20094 50001 FZRANO $
Dest. Wx: BIKF 271800Z 07022KT CAVOK 05/M03 Q0983
Notes: USTRANSCOM CONTRACT FLIGHT

Financial History
Total Freight: 66,689lbs
Average Load: 66,689lbs/flt
Fuel Used: 27,379lbs
Avg. Fuel Used: 27,379lbs/flt
Fuel Expense: $21,903
Avg. Fuel Expense: $21,903
Avg. Fuel Cost: $0.80/lbs
Total Gross Income: $122,041
Pilot Pay: $99
Total Expenses: $13,232
Total Revenue: $86,601
Average Revenue: $122,040.87